Terminal Aerodrome Forecast
Issued by NWS

Home | Current Version | Previous Version | Text Only | Print | Product List | Glossary On
Versions: 1 2 3 4 5 6 7 8 9 10 11 12 13 14 15
285
FTUS44 KBMX 251126
TAFMGM
TAF
KMGM 251126Z 2512/2612 00000KT 1SM BR OVC001
     FM251300 00000KT 6SM BR SCT002
     FM251500 27006KT P6SM BKN200
     FM260400 32006KT P6SM SKC=

USA.gov is the U.S. government's official web portal to all federal, state and local government web resources and services.